<?xml version="1.0" encoding="UTF-8" standalone="no" ?>
<gpx xmlns="http://www.topografix.com/GPX/1/1" xmlns:xsi="http://www.w3.org/2001/XMLSchema-instance" xsi:schemaLocation="http://www.topografix.com/GPX/1/1 http://www.topografix.com/GPX/1/1/gpx.xsd" version="1.1" creator="VisuGPX - https://www.visugpx.com">
  <metadata>
    <name>Le Cougoir par la route de Venterol</name>
    <desc><![CDATA[Une vue sur toute la région de Nyons et ses environs]]></desc>
  </metadata>
  <trk>
    <name><![CDATA[Le Cougoir (Côté Venterol)]]></name>
    <trkseg>
      <trkpt lat="44.4257" lon="5.11874">
        <ele>629</ele>
        <time>2015-04-14T13:40:42+02:00</time>
      </trkpt>
      <trkpt lat="44.42593" lon="5.11871">
        <ele>632</ele>
        <time>2015-04-14T13:40:47+02:00</time>
      </trkpt>
      <trkpt lat="44.42648" lon="5.11799">
        <ele>642</ele>
        <time>2015-04-14T13:40:52+02:00</time>
      </trkpt>
      <trkpt lat="44.42734" lon="5.11751">
        <ele>658</ele>
        <time>2015-04-14T13:40:57+02:00</time>
      </trkpt>
      <trkpt lat="44.42774" lon="5.11689">
        <ele>664</ele>
        <time>2015-04-14T13:41:02+02:00</time>
      </trkpt>
      <trkpt lat="44.42797" lon="5.11603">
        <ele>667</ele>
        <time>2015-04-14T13:41:07+02:00</time>
      </trkpt>
      <trkpt lat="44.42823" lon="5.11573">
        <ele>680</ele>
        <time>2015-04-14T13:41:12+02:00</time>
      </trkpt>
      <trkpt lat="44.42872" lon="5.1155">
        <ele>680</ele>
        <time>2015-04-14T13:41:17+02:00</time>
      </trkpt>
      <trkpt lat="44.42915" lon="5.11487">
        <ele>687</ele>
        <time>2015-04-14T13:41:22+02:00</time>
      </trkpt>
      <trkpt lat="44.42979" lon="5.11509">
        <ele>696</ele>
        <time>2015-04-14T13:41:27+02:00</time>
      </trkpt>
      <trkpt lat="44.42943" lon="5.11526">
        <ele>687</ele>
        <time>2015-04-14T13:41:32+02:00</time>
      </trkpt>
      <trkpt lat="44.42886" lon="5.11631">
        <ele>696</ele>
        <time>2015-04-14T13:41:37+02:00</time>
      </trkpt>
      <trkpt lat="44.42826" lon="5.11758">
        <ele>699</ele>
        <time>2015-04-14T13:41:42+02:00</time>
      </trkpt>
      <trkpt lat="44.42921" lon="5.11689">
        <ele>697</ele>
        <time>2015-04-14T13:41:47+02:00</time>
      </trkpt>
      <trkpt lat="44.42961" lon="5.11618">
        <ele>722</ele>
        <time>2015-04-14T13:41:52+02:00</time>
      </trkpt>
      <trkpt lat="44.42998" lon="5.11597">
        <ele>727</ele>
        <time>2015-04-14T13:41:57+02:00</time>
      </trkpt>
      <trkpt lat="44.4297" lon="5.11663">
        <ele>742</ele>
        <time>2015-04-14T13:42:02+02:00</time>
      </trkpt>
      <trkpt lat="44.42949" lon="5.11736">
        <ele>722</ele>
        <time>2015-04-14T13:42:07+02:00</time>
      </trkpt>
      <trkpt lat="44.42878" lon="5.11912">
        <ele>740</ele>
        <time>2015-04-14T13:42:12+02:00</time>
      </trkpt>
      <trkpt lat="44.4286" lon="5.1202">
        <ele>779</ele>
        <time>2015-04-14T13:42:17+02:00</time>
      </trkpt>
      <trkpt lat="44.42861" lon="5.12088">
        <ele>787</ele>
        <time>2015-04-14T13:42:22+02:00</time>
      </trkpt>
      <trkpt lat="44.42866" lon="5.12123">
        <ele>766</ele>
        <time>2015-04-14T13:42:27+02:00</time>
      </trkpt>
      <trkpt lat="44.42937" lon="5.1202">
        <ele>790</ele>
        <time>2015-04-14T13:42:32+02:00</time>
      </trkpt>
      <trkpt lat="44.42912" lon="5.12208">
        <ele>825</ele>
        <time>2015-04-14T13:42:37+02:00</time>
      </trkpt>
      <trkpt lat="44.43016" lon="5.12028">
        <ele>826</ele>
        <time>2015-04-14T13:42:42+02:00</time>
      </trkpt>
      <trkpt lat="44.43056" lon="5.11925">
        <ele>820</ele>
        <time>2015-04-14T13:42:47+02:00</time>
      </trkpt>
      <trkpt lat="44.43007" lon="5.12191">
        <ele>848</ele>
        <time>2015-04-14T13:42:52+02:00</time>
      </trkpt>
      <trkpt lat="44.43007" lon="5.12253">
        <ele>876</ele>
        <time>2015-04-14T13:42:57+02:00</time>
      </trkpt>
      <trkpt lat="44.43022" lon="5.12307">
        <ele>862</ele>
        <time>2015-04-14T13:43:02+02:00</time>
      </trkpt>
      <trkpt lat="44.43059" lon="5.12434">
        <ele>898</ele>
        <time>2015-04-14T13:43:07+02:00</time>
      </trkpt>
      <trkpt lat="44.43087" lon="5.12565">
        <ele>894</ele>
        <time>2015-04-14T13:43:12+02:00</time>
      </trkpt>
      <trkpt lat="44.43105" lon="5.12625">
        <ele>925</ele>
        <time>2015-04-14T13:43:17+02:00</time>
      </trkpt>
      <trkpt lat="44.43136" lon="5.12676">
        <ele>920</ele>
        <time>2015-04-14T13:43:22+02:00</time>
      </trkpt>
      <trkpt lat="44.43176" lon="5.12689">
        <ele>954</ele>
        <time>2015-04-14T13:43:27+02:00</time>
      </trkpt>
      <trkpt lat="44.43209" lon="5.12813">
        <ele>950</ele>
        <time>2015-04-14T13:43:32+02:00</time>
      </trkpt>
      <trkpt lat="44.43249" lon="5.12876">
        <ele>984</ele>
        <time>2015-04-14T13:43:37+02:00</time>
      </trkpt>
      <trkpt lat="44.43182" lon="5.12912">
        <ele>966</ele>
        <time>2015-04-14T13:43:42+02:00</time>
      </trkpt>
      <trkpt lat="44.432" lon="5.12955">
        <ele>976</ele>
        <time>2015-04-14T13:43:47+02:00</time>
      </trkpt>
      <trkpt lat="44.4315" lon="5.13019">
        <ele>992</ele>
        <time>2015-04-14T13:43:52+02:00</time>
      </trkpt>
      <trkpt lat="44.43102" lon="5.13071">
        <ele>1012</ele>
        <time>2015-04-14T13:43:57+02:00</time>
      </trkpt>
      <trkpt lat="44.43084" lon="5.13034">
        <ele>1009</ele>
        <time>2015-04-14T13:44:02+02:00</time>
      </trkpt>
      <trkpt lat="44.4305" lon="5.13007">
        <ele>1006</ele>
        <time>2015-04-14T13:44:07+02:00</time>
      </trkpt>
      <trkpt lat="44.42983" lon="5.12987">
        <ele>1015</ele>
        <time>2015-04-14T13:44:12+02:00</time>
      </trkpt>
      <trkpt lat="44.42961" lon="5.13065">
        <ele>1033</ele>
        <time>2015-04-14T13:44:17+02:00</time>
      </trkpt>
      <trkpt lat="44.42961" lon="5.13127">
        <ele>1035</ele>
        <time>2015-04-14T13:44:22+02:00</time>
      </trkpt>
      <trkpt lat="44.42956" lon="5.13258">
        <ele>1078</ele>
        <time>2015-04-14T13:44:27+02:00</time>
      </trkpt>
      <trkpt lat="44.4296" lon="5.13309">
        <ele>1088</ele>
        <time>2015-04-14T13:44:32+02:00</time>
      </trkpt>
      <trkpt lat="44.42946" lon="5.13371">
        <ele>1096</ele>
        <time>2015-04-14T13:44:37+02:00</time>
      </trkpt>
      <trkpt lat="44.42915" lon="5.13389">
        <ele>1112</ele>
        <time>2015-04-14T13:44:42+02:00</time>
      </trkpt>
      <trkpt lat="44.42852" lon="5.13472">
        <ele>1133</ele>
        <time>2015-04-14T13:44:47+02:00</time>
      </trkpt>
      <trkpt lat="44.42745" lon="5.13554">
        <ele>1151</ele>
        <time>2015-04-14T13:44:52+02:00</time>
      </trkpt>
      <trkpt lat="44.42698" lon="5.13597">
        <ele>1163</ele>
        <time>2015-04-14T13:44:57+02:00</time>
      </trkpt>
      <trkpt lat="44.42667" lon="5.13646">
        <ele>1150</ele>
        <time>2015-04-14T13:45:02+02:00</time>
      </trkpt>
      <trkpt lat="44.42658" lon="5.1374">
        <ele>1152</ele>
        <time>2015-04-14T13:45:07+02:00</time>
      </trkpt>
      <trkpt lat="44.42688" lon="5.13998">
        <ele>1175</ele>
        <time>2015-04-14T13:45:12+02:00</time>
      </trkpt>
      <trkpt lat="44.42691" lon="5.1411">
        <ele>1190</ele>
        <time>2015-04-14T13:45:17+02:00</time>
      </trkpt>
      <trkpt lat="44.42612" lon="5.14202">
        <ele>1180</ele>
        <time>2015-04-14T13:45:22+02:00</time>
      </trkpt>
      <trkpt lat="44.4257" lon="5.14223">
        <ele>1175</ele>
        <time>2015-04-14T13:45:27+02:00</time>
      </trkpt>
      <trkpt lat="44.42537" lon="5.14245">
        <ele>1168</ele>
        <time>2015-04-14T13:45:32+02:00</time>
      </trkpt>
      <trkpt lat="44.42521" lon="5.14337">
        <ele>1171</ele>
        <time>2015-04-14T13:45:37+02:00</time>
      </trkpt>
      <trkpt lat="44.42495" lon="5.14423">
        <ele>1170</ele>
        <time>2015-04-14T13:45:42+02:00</time>
      </trkpt>
      <trkpt lat="44.42432" lon="5.14444">
        <ele>1169</ele>
        <time>2015-04-14T13:45:47+02:00</time>
      </trkpt>
      <trkpt lat="44.4237" lon="5.14459">
        <ele>1155</ele>
        <time>2015-04-14T13:45:52+02:00</time>
      </trkpt>
      <trkpt lat="44.42348" lon="5.1447">
        <ele>1150</ele>
        <time>2015-04-14T13:45:57+02:00</time>
      </trkpt>
      <trkpt lat="44.42322" lon="5.14466">
        <ele>1145</ele>
        <time>2015-04-14T13:46:02+02:00</time>
      </trkpt>
      <trkpt lat="44.42233" lon="5.14485">
        <ele>1124</ele>
        <time>2015-04-14T13:46:07+02:00</time>
      </trkpt>
      <trkpt lat="44.42137" lon="5.145">
        <ele>1083</ele>
        <time>2015-04-14T13:46:12+02:00</time>
      </trkpt>
      <trkpt lat="44.41996" lon="5.14496">
        <ele>1044</ele>
        <time>2015-04-14T13:46:17+02:00</time>
      </trkpt>
      <trkpt lat="44.41701" lon="5.14609">
        <ele>972</ele>
        <time>2015-04-14T13:46:22+02:00</time>
      </trkpt>
      <trkpt lat="44.41678" lon="5.14594">
        <ele>970</ele>
        <time>2015-04-14T13:46:27+02:00</time>
      </trkpt>
      <trkpt lat="44.4176" lon="5.1441">
        <ele>964</ele>
        <time>2015-04-14T13:46:32+02:00</time>
      </trkpt>
      <trkpt lat="44.41796" lon="5.14339">
        <ele>959</ele>
        <time>2015-04-14T13:46:37+02:00</time>
      </trkpt>
      <trkpt lat="44.41839" lon="5.14318">
        <ele>969</ele>
        <time>2015-04-14T13:46:42+02:00</time>
      </trkpt>
      <trkpt lat="44.41884" lon="5.14268">
        <ele>964</ele>
        <time>2015-04-14T13:46:47+02:00</time>
      </trkpt>
      <trkpt lat="44.41933" lon="5.1423">
        <ele>964</ele>
        <time>2015-04-14T13:46:52+02:00</time>
      </trkpt>
      <trkpt lat="44.42003" lon="5.14167">
        <ele>970</ele>
        <time>2015-04-14T13:46:57+02:00</time>
      </trkpt>
      <trkpt lat="44.42008" lon="5.13985">
        <ele>920</ele>
        <time>2015-04-14T13:47:02+02:00</time>
      </trkpt>
      <trkpt lat="44.42051" lon="5.13843">
        <ele>909</ele>
        <time>2015-04-14T13:47:07+02:00</time>
      </trkpt>
      <trkpt lat="44.42084" lon="5.1374">
        <ele>899</ele>
        <time>2015-04-14T13:47:12+02:00</time>
      </trkpt>
      <trkpt lat="44.42129" lon="5.13704">
        <ele>932</ele>
        <time>2015-04-14T13:47:17+02:00</time>
      </trkpt>
      <trkpt lat="44.4217" lon="5.13642">
        <ele>906</ele>
        <time>2015-04-14T13:47:22+02:00</time>
      </trkpt>
      <trkpt lat="44.42176" lon="5.13552">
        <ele>920</ele>
        <time>2015-04-14T13:47:27+02:00</time>
      </trkpt>
      <trkpt lat="44.42164" lon="5.13466">
        <ele>879</ele>
        <time>2015-04-14T13:47:32+02:00</time>
      </trkpt>
      <trkpt lat="44.42198" lon="5.13341">
        <ele>880</ele>
        <time>2015-04-14T13:47:37+02:00</time>
      </trkpt>
      <trkpt lat="44.42201" lon="5.13191">
        <ele>864</ele>
        <time>2015-04-14T13:47:42+02:00</time>
      </trkpt>
      <trkpt lat="44.42204" lon="5.13084">
        <ele>860</ele>
        <time>2015-04-14T13:47:47+02:00</time>
      </trkpt>
      <trkpt lat="44.42201" lon="5.13041">
        <ele>859</ele>
        <time>2015-04-14T13:47:52+02:00</time>
      </trkpt>
      <trkpt lat="44.42206" lon="5.12989">
        <ele>863</ele>
        <time>2015-04-14T13:47:57+02:00</time>
      </trkpt>
      <trkpt lat="44.42258" lon="5.12927">
        <ele>854</ele>
        <time>2015-04-14T13:48:02+02:00</time>
      </trkpt>
      <trkpt lat="44.42282" lon="5.12886">
        <ele>848</ele>
        <time>2015-04-14T13:48:07+02:00</time>
      </trkpt>
      <trkpt lat="44.42305" lon="5.12861">
        <ele>832</ele>
        <time>2015-04-14T13:48:12+02:00</time>
      </trkpt>
      <trkpt lat="44.42333" lon="5.12826">
        <ele>838</ele>
        <time>2015-04-14T13:48:17+02:00</time>
      </trkpt>
      <trkpt lat="44.42388" lon="5.12809">
        <ele>839</ele>
        <time>2015-04-14T13:48:22+02:00</time>
      </trkpt>
      <trkpt lat="44.42452" lon="5.12745">
        <ele>830</ele>
        <time>2015-04-14T13:48:27+02:00</time>
      </trkpt>
      <trkpt lat="44.42491" lon="5.12693">
        <ele>825</ele>
        <time>2015-04-14T13:48:32+02:00</time>
      </trkpt>
      <trkpt lat="44.42458" lon="5.12704">
        <ele>821</ele>
        <time>2015-04-14T13:48:37+02:00</time>
      </trkpt>
      <trkpt lat="44.42396" lon="5.12753">
        <ele>822</ele>
        <time>2015-04-14T13:48:42+02:00</time>
      </trkpt>
      <trkpt lat="44.42394" lon="5.12734">
        <ele>817</ele>
        <time>2015-04-14T13:48:47+02:00</time>
      </trkpt>
      <trkpt lat="44.42443" lon="5.1268">
        <ele>794</ele>
        <time>2015-04-14T13:48:52+02:00</time>
      </trkpt>
      <trkpt lat="44.42446" lon="5.12644">
        <ele>803</ele>
        <time>2015-04-14T13:48:57+02:00</time>
      </trkpt>
      <trkpt lat="44.42426" lon="5.12603">
        <ele>787</ele>
        <time>2015-04-14T13:49:02+02:00</time>
      </trkpt>
      <trkpt lat="44.42399" lon="5.1258">
        <ele>777</ele>
        <time>2015-04-14T13:49:07+02:00</time>
      </trkpt>
      <trkpt lat="44.42367" lon="5.12558">
        <ele>769</ele>
        <time>2015-04-14T13:49:12+02:00</time>
      </trkpt>
      <trkpt lat="44.42373" lon="5.12519">
        <ele>757</ele>
        <time>2015-04-14T13:49:17+02:00</time>
      </trkpt>
      <trkpt lat="44.42388" lon="5.125">
        <ele>740</ele>
        <time>2015-04-14T13:49:22+02:00</time>
      </trkpt>
      <trkpt lat="44.42365" lon="5.12483">
        <ele>747</ele>
        <time>2015-04-14T13:49:27+02:00</time>
      </trkpt>
      <trkpt lat="44.42388" lon="5.1244">
        <ele>727</ele>
        <time>2015-04-14T13:49:32+02:00</time>
      </trkpt>
      <trkpt lat="44.42429" lon="5.12436">
        <ele>742</ele>
        <time>2015-04-14T13:49:37+02:00</time>
      </trkpt>
      <trkpt lat="44.42417" lon="5.12326">
        <ele>710</ele>
        <time>2015-04-14T13:49:42+02:00</time>
      </trkpt>
      <trkpt lat="44.42414" lon="5.12211">
        <ele>682</ele>
        <time>2015-04-14T13:49:47+02:00</time>
      </trkpt>
      <trkpt lat="44.42431" lon="5.12144">
        <ele>651</ele>
        <time>2015-04-14T13:49:52+02:00</time>
      </trkpt>
      <trkpt lat="44.42409" lon="5.1217">
        <ele>673</ele>
        <time>2015-04-14T13:49:57+02:00</time>
      </trkpt>
      <trkpt lat="44.42388" lon="5.12217">
        <ele>673</ele>
        <time>2015-04-14T13:50:02+02:00</time>
      </trkpt>
      <trkpt lat="44.42389" lon="5.12183">
        <ele>676</ele>
        <time>2015-04-14T13:50:07+02:00</time>
      </trkpt>
      <trkpt lat="44.42406" lon="5.12099">
        <ele>653</ele>
        <time>2015-04-14T13:50:12+02:00</time>
      </trkpt>
      <trkpt lat="44.42489" lon="5.1202">
        <ele>629</ele>
        <time>2015-04-14T13:50:17+02:00</time>
      </trkpt>
      <trkpt lat="44.42517" lon="5.11981">
        <ele>643</ele>
        <time>2015-04-14T13:50:22+02:00</time>
      </trkpt>
      <trkpt lat="44.42555" lon="5.11955">
        <ele>641</ele>
        <time>2015-04-14T13:50:27+02:00</time>
      </trkpt>
      <trkpt lat="44.42586" lon="5.11893">
        <ele>631</ele>
        <time>2015-04-14T13:50:32+02:00</time>
      </trkpt>
    </trkseg>
  </trk>
</gpx>